Terminal Aerodrome Forecast
Issued by NWS

Home | Current Version | Previous Version | Graphics & Text | Print | Product List | Glossary On
Versions: 1 2 3 4 5 6 7 8 9 10 11 12 13 14 15 16 17 18
000
FTUS43 KFGF 271728
TAFBJI
TAF
KBJI 271728Z 2718/2818 26014G23KT P6SM SCT070
     FM272100 26014G24KT P6SM VCSH BKN070
     FM280100 24012KT P6SM VCSH BKN070
     FM280900 28006KT P6SM BKN060
     FM281600 29013G19KT P6SM BKN035=

USA.gov is the U.S. government's official web portal to all federal, state and local government web resources and services.